createdAt,value
2018-06-08T00:01:05.417Z,69.20
2018-06-08T00:06:57.273Z,68.30
2018-06-08T00:09:48.259Z,68.10
2018-06-08T00:12:42.065Z,70.00
2018-06-08T00:15:32.953Z,70.60
2018-06-08T00:18:18.932Z,69.70
2018-06-08T00:21:12.514Z,68.90
2018-06-08T00:23:59.267Z,67.90
2018-06-08T00:26:58.089Z,68.00
2018-06-08T00:29:46.852Z,68.50
2018-06-08T00:32:24.395Z,69.30
2018-06-08T00:34:54.272Z,70.60
2018-06-08T00:37:24.468Z,70.80
2018-06-08T00:44:58.712Z,72.50
2018-06-08T00:47:28.365Z,71.60
2018-06-08T00:49:58.071Z,71.20
2018-06-08T00:52:28.175Z,72.00
2018-06-08T00:59:58.181Z,71.80
2018-06-08T01:02:27.953Z,70.10
2018-06-08T01:04:57.776Z,69.80
2018-06-08T01:07:27.620Z,68.90
2018-06-08T01:09:57.386Z,68.70
2018-06-08T01:12:27.562Z,68.50
2018-06-08T01:14:57.914Z,67.90
2018-06-08T01:17:28.739Z,68.00
2018-06-08T01:22:31.202Z,68.30
2018-06-08T01:25:01.815Z,68.70
2018-06-08T01:27:31.653Z,68.60
2018-06-08T01:30:02.980Z,68.00
2018-06-08T01:32:32.878Z,68.40
2018-06-08T01:35:03.111Z,68.20
2018-06-08T01:37:32.988Z,67.80
2018-06-08T01:40:03.333Z,68.20
2018-06-08T01:42:33.001Z,67.80
2018-06-08T01:45:02.646Z,68.30
2018-06-08T01:47:32.486Z,69.10
2018-06-08T01:50:02.271Z,68.90
2018-06-08T01:52:32.133Z,69.80
2018-06-08T01:55:02.190Z,69.80
2018-06-08T01:57:31.918Z,68.90
2018-06-08T02:00:04.764Z,68.30
2018-06-08T02:02:35.388Z,68.60
2018-06-08T02:05:05.082Z,68.70
2018-06-08T02:07:35.276Z,68.80
2018-06-08T02:10:05.346Z,70.00
2018-06-08T02:12:35.562Z,69.30
2018-06-08T02:17:40.294Z,68.70
2018-06-08T02:20:10.172Z,68.70
2018-06-08T02:22:40.507Z,68.40
2018-06-08T02:25:10.287Z,68.70
2018-06-08T02:27:40.120Z,68.20
2018-06-08T02:30:10.035Z,68.00
2018-06-08T02:32:39.864Z,68.50
2018-06-08T02:35:09.560Z,68.60
2018-06-08T02:37:39.364Z,68.00
2018-06-08T02:40:09.037Z,68.30
2018-06-08T02:42:38.827Z,68.50
2018-06-08T02:45:08.677Z,68.60
2018-06-08T02:47:38.430Z,68.80
2018-06-08T02:50:08.314Z,68.40
2018-06-08T02:55:07.632Z,69.30
2018-06-08T03:00:07.910Z,69.00
2018-06-08T03:02:38.160Z,68.80
2018-06-08T03:07:43.106Z,70.00
2018-06-08T03:10:12.908Z,69.10
2018-06-08T03:12:42.725Z,69.10
2018-06-08T03:15:12.474Z,71.00
2018-06-08T03:17:42.278Z,71.10
2018-06-08T03:22:55.099Z,70.20
2018-06-08T03:25:29.501Z,69.70
2018-06-08T03:28:08.955Z,70.30
2018-06-08T03:30:50.021Z,71.90
2018-06-08T03:33:27.791Z,71.60
2018-06-08T03:36:13.319Z,71.10
2018-06-08T03:38:48.635Z,69.90
2018-06-08T03:41:25.140Z,69.40
2018-06-08T03:44:08.192Z,69.60
2018-06-08T03:46:46.720Z,71.20
2018-06-08T03:49:25.107Z,71.70
2018-06-08T03:52:05.314Z,73.40
2018-06-08T03:54:45.208Z,72.90
2018-06-08T03:57:25.413Z,73.10
2018-06-08T04:00:06.313Z,74.10
2018-06-08T04:02:44.090Z,72.50
2018-06-08T04:05:22.103Z,72.90
2018-06-08T04:07:58.832Z,69.20
2018-06-08T04:10:32.676Z,69.30
2018-06-08T04:13:09.018Z,68.80
2018-06-08T04:15:50.443Z,68.40
2018-06-08T04:18:35.023Z,68.80
2018-06-08T04:21:11.800Z,68.40
2018-06-08T04:23:50.773Z,68.30
2018-06-08T04:26:30.415Z,68.60
2018-06-08T04:29:09.287Z,69.40
2018-06-08T04:31:52.577Z,68.50
2018-06-08T04:34:31.908Z,67.60
2018-06-08T04:37:15.149Z,68.30
2018-06-08T04:39:48.044Z,68.00
2018-06-08T04:42:29.585Z,67.30
2018-06-08T04:45:06.076Z,67.30
2018-06-08T04:47:42.166Z,68.20
2018-06-08T04:50:19.072Z,68.60
2018-06-08T04:52:51.447Z,68.70
2018-06-08T04:55:30.962Z,67.10
2018-06-08T04:58:06.431Z,67.60
2018-06-08T05:00:40.937Z,66.00
2018-06-08T05:03:20.197Z,66.40
2018-06-08T05:05:54.029Z,65.50
2018-06-08T05:08:39.778Z,65.80
2018-06-08T05:11:18.836Z,65.80
2018-06-08T05:13:53.461Z,65.20
2018-06-08T05:16:35.165Z,64.20
2018-06-08T05:19:17.043Z,64.80
2018-06-08T05:21:53.823Z,64.40
2018-06-08T05:24:30.527Z,66.00
2018-06-08T05:27:07.557Z,65.00
2018-06-08T05:29:48.756Z,65.80
2018-06-08T05:32:22.240Z,63.50
2018-06-08T05:34:58.839Z,63.00
2018-06-08T05:37:37.122Z,62.50
2018-06-08T05:40:11.863Z,63.20
2018-06-08T05:45:30.747Z,63.70
2018-06-08T05:48:15.415Z,62.20
2018-06-08T05:56:06.403Z,62.20
2018-06-08T05:58:43.633Z,62.70
2018-06-08T06:01:22.391Z,61.20
2018-06-08T06:03:59.537Z,61.70
2018-06-08T06:09:08.178Z,61.40
2018-06-08T06:11:47.031Z,62.30
2018-06-08T06:14:25.915Z,61.90
2018-06-08T06:17:05.740Z,61.50
2018-06-08T06:19:46.570Z,62.20
2018-06-08T06:22:27.311Z,63.00
2018-06-08T06:33:08.253Z,64.00
2018-06-08T06:35:52.237Z,64.30
2018-06-08T06:38:32.475Z,64.50
2018-06-08T06:41:06.817Z,64.00
2018-06-08T06:46:29.252Z,63.70
2018-06-08T06:49:08.031Z,63.30
2018-06-08T06:51:43.158Z,62.00
2018-06-08T06:54:24.979Z,61.50
2018-06-08T06:59:42.970Z,60.50
2018-06-08T07:02:26.718Z,58.90
2018-06-08T07:05:06.528Z,60.00
2018-06-08T07:07:47.139Z,60.30
2018-06-08T07:13:03.493Z,59.60
2018-06-08T07:15:44.816Z,60.50
2018-06-08T07:18:22.585Z,61.30
2018-06-08T07:21:04.792Z,61.40
2018-06-08T07:23:40.443Z,60.70
2018-06-08T07:26:17.888Z,61.40
2018-06-08T07:28:53.401Z,60.20
2018-06-08T07:31:31.281Z,58.80
2018-06-08T07:34:10.405Z,59.30
2018-06-08T07:36:48.440Z,59.70
2018-06-08T07:39:30.817Z,59.10
2018-06-08T07:42:05.096Z,59.40
2018-06-08T07:44:44.866Z,59.60
2018-06-08T07:47:27.159Z,59.20
2018-06-08T07:50:07.968Z,58.70
2018-06-08T07:52:50.103Z,58.30
2018-06-08T07:55:24.997Z,57.50
2018-06-08T07:58:07.729Z,57.40
2018-06-08T08:00:49.620Z,57.70
2018-06-08T08:03:24.924Z,58.20
2018-06-08T08:06:08.128Z,57.40
2018-06-08T08:11:28.648Z,57.30
2018-06-08T08:14:12.011Z,57.90
2018-06-08T08:19:30.281Z,57.10
2018-06-08T08:22:08.768Z,57.30
2018-06-08T08:24:42.852Z,56.70
2018-06-08T08:27:22.306Z,56.40
2018-06-08T08:30:10.837Z,56.20
2018-06-08T08:35:29.034Z,56.50
2018-06-08T08:40:42.668Z,53.70
2018-06-08T08:43:19.335Z,52.40
2018-06-08T08:45:56.455Z,53.50
2018-06-08T08:48:37.054Z,54.70
2018-06-08T08:51:15.967Z,52.60
2018-06-08T08:53:52.995Z,51.30
2018-06-08T08:56:30.377Z,52.20
2018-06-08T08:59:08.180Z,51.70
2018-06-08T09:01:45.393Z,51.90
2018-06-08T09:04:20.789Z,52.60
2018-06-08T09:06:57.912Z,54.80
2018-06-08T09:09:37.945Z,52.80
2018-06-08T09:12:17.813Z,50.10
2018-06-08T09:14:53.788Z,50.80
2018-06-08T09:17:28.666Z,51.00
2018-06-08T09:20:04.801Z,50.20
2018-06-08T09:22:43.615Z,51.20
2018-06-08T09:25:24.654Z,52.20
2018-06-08T09:28:04.709Z,51.10
2018-06-08T09:33:19.804Z,49.40
2018-06-08T09:35:59.604Z,49.30
2018-06-08T09:38:43.733Z,48.40
2018-06-08T09:41:21.515Z,49.40
2018-06-08T09:44:06.205Z,49.50
2018-06-08T09:46:48.537Z,49.00
2018-06-08T09:49:27.676Z,49.30
2018-06-08T09:52:05.196Z,48.80
2018-06-08T09:54:45.988Z,48.00
2018-06-08T09:57:26.239Z,48.10
2018-06-08T10:00:03.112Z,48.40
2018-06-08T10:02:51.308Z,49.50
2018-06-08T10:05:38.153Z,49.80
2018-06-08T10:08:20.656Z,49.70
2018-06-08T10:16:14.855Z,50.00
2018-06-08T10:18:57.480Z,49.00
2018-06-08T10:21:37.565Z,49.60
2018-06-08T10:24:18.686Z,48.50
2018-06-08T10:27:02.549Z,49.10
2018-06-08T10:35:00.584Z,48.50
2018-06-08T10:37:37.583Z,49.40
2018-06-08T10:42:53.134Z,49.30
2018-06-08T10:45:37.303Z,47.70
2018-06-08T10:48:15.440Z,49.80
2018-06-08T10:50:59.313Z,49.00
2018-06-08T10:53:35.043Z,49.30
2018-06-08T10:56:14.795Z,48.80
2018-06-08T10:58:50.772Z,47.70
2018-06-08T11:01:36.977Z,49.20
2018-06-08T11:04:15.816Z,47.00
2018-06-08T11:06:58.553Z,47.50
2018-06-08T11:09:37.790Z,48.60
2018-06-08T11:12:20.314Z,50.20
2018-06-08T11:17:38.889Z,46.90
2018-06-08T11:20:15.255Z,49.10
2018-06-08T11:22:53.321Z,48.90
2018-06-08T11:25:29.402Z,50.00
2018-06-08T11:30:41.321Z,49.80
2018-06-08T11:36:01.013Z,49.60
2018-06-08T11:38:38.919Z,49.50
2018-06-08T11:41:18.901Z,51.10
2018-06-08T11:43:57.723Z,49.40
2018-06-08T11:46:34.497Z,48.40
2018-06-08T11:49:15.014Z,50.40
2018-06-08T11:51:57.189Z,51.00
2018-06-08T11:57:24.282Z,48.80
2018-06-08T12:00:01.945Z,47.20
2018-06-08T12:02:39.331Z,47.80
2018-06-08T12:05:31.004Z,49.30
2018-06-08T12:08:14.050Z,46.80
2018-06-08T12:10:48.577Z,48.50
2018-06-08T12:13:30.435Z,48.40
2018-06-08T12:18:54.515Z,47.80
2018-06-08T12:21:32.714Z,45.00
2018-06-08T12:24:11.107Z,48.40
2018-06-08T12:29:25.876Z,44.90
2018-06-08T12:32:06.620Z,46.90
2018-06-08T12:34:41.989Z,45.90
2018-06-08T12:39:53.729Z,46.00
2018-06-08T12:45:19.189Z,45.70
2018-06-08T12:47:59.755Z,44.60
2018-06-08T12:50:39.938Z,45.30
2018-06-08T12:53:17.757Z,47.70
2018-06-08T12:55:55.434Z,47.10
2018-06-08T12:58:43.919Z,46.80
2018-06-08T13:01:22.706Z,47.10
2018-06-08T13:03:56.977Z,47.50
2018-06-08T13:06:32.867Z,47.80
2018-06-08T13:09:13.213Z,47.40
2018-06-08T13:11:50.510Z,46.00
2018-06-08T13:14:27.331Z,45.80
2018-06-08T13:19:42.521Z,48.30
2018-06-08T13:24:57.465Z,46.30
2018-06-08T13:27:37.947Z,46.40
2018-06-08T13:30:17.768Z,47.80
2018-06-08T13:32:53.813Z,47.70
2018-06-08T13:38:14.119Z,49.90
2018-06-08T13:40:54.926Z,47.80
2018-06-08T13:43:39.147Z,48.10
2018-06-08T13:52:15.220Z,48.10
2018-06-08T13:54:52.002Z,47.00
2018-06-08T13:57:32.464Z,47.50
2018-06-08T14:00:10.749Z,46.90
2018-06-08T14:02:52.008Z,48.80
2018-06-08T14:05:29.783Z,47.00
2018-06-08T14:08:15.528Z,48.10
2018-06-08T14:10:53.625Z,47.80
2018-06-08T14:13:36.366Z,48.10
2018-06-08T14:16:16.535Z,47.90
2018-06-08T14:18:54.204Z,48.00
2018-06-08T14:24:17.384Z,46.70
2018-06-08T14:26:55.960Z,47.90
2018-06-08T14:29:33.681Z,46.80
2018-06-08T14:32:13.669Z,47.50
2018-06-08T14:34:51.783Z,47.80
2018-06-08T14:37:33.776Z,47.00
2018-06-08T14:40:10.535Z,47.80
2018-06-08T14:42:46.108Z,47.50
2018-06-08T14:45:23.352Z,47.40
2018-06-08T14:48:00.432Z,46.70
2018-06-08T14:50:38.542Z,49.30
2018-06-08T14:53:12.908Z,49.60
2018-06-08T14:55:52.500Z,49.60
2018-06-08T14:58:36.182Z,50.70
2018-06-08T15:01:16.198Z,50.40
2018-06-08T15:04:02.795Z,50.40
2018-06-08T15:06:43.976Z,50.50
2018-06-08T15:09:18.100Z,50.90
2018-06-08T15:11:54.833Z,52.10
2018-06-08T15:14:34.870Z,51.30
2018-06-08T15:17:10.394Z,52.30
2018-06-08T15:19:49.432Z,52.10
2018-06-08T15:22:29.925Z,50.60
2018-06-08T15:25:10.394Z,51.10
2018-06-08T15:27:51.237Z,51.40
2018-06-08T15:30:28.703Z,51.80
2018-06-08T15:35:50.832Z,51.90
2018-06-08T15:38:31.747Z,51.70
2018-06-08T15:41:13.684Z,52.20
2018-06-08T15:46:33.237Z,51.70
2018-06-08T15:49:10.379Z,52.00
2018-06-08T15:57:17.245Z,53.20
2018-06-08T15:59:59.557Z,53.10
2018-06-08T16:05:19.160Z,53.40
2018-06-08T16:07:54.393Z,54.80
2018-06-08T16:13:13.509Z,55.30
2018-06-08T16:15:46.738Z,56.90
2018-06-08T16:18:31.090Z,57.90
2018-06-08T16:26:19.638Z,60.10
2018-06-08T16:28:56.978Z,60.70
2018-06-08T16:34:16.862Z,59.40
2018-06-08T16:37:01.823Z,60.00
2018-06-08T16:39:38.695Z,60.70
2018-06-08T16:42:16.951Z,61.10
2018-06-08T16:47:39.468Z,63.00
2018-06-08T16:50:18.914Z,63.60
2018-06-08T16:52:57.880Z,64.20
2018-06-08T16:55:37.004Z,63.80
2018-06-08T16:58:16.502Z,64.10
2018-06-08T17:01:01.734Z,64.90
2018-06-08T17:03:43.357Z,66.10
2018-06-08T17:06:24.559Z,67.50
2018-06-08T17:11:57.915Z,66.90
2018-06-08T17:14:33.725Z,67.00
2018-06-08T17:17:18.823Z,67.90
2018-06-08T17:19:57.263Z,70.00
2018-06-08T17:22:37.753Z,71.50
2018-06-08T17:25:19.476Z,71.50
2018-06-08T17:28:09.335Z,69.80
2018-06-08T17:30:44.831Z,70.60
2018-06-08T17:33:19.930Z,71.00
2018-06-08T17:35:58.439Z,70.60
2018-06-08T17:38:37.938Z,69.40
2018-06-08T17:41:21.004Z,69.70
2018-06-08T17:44:00.635Z,70.80
2018-06-08T17:46:50.799Z,70.80
2018-06-08T17:49:38.717Z,71.60
2018-06-08T17:52:17.349Z,70.90
2018-06-08T17:54:58.920Z,71.10
2018-06-08T17:57:43.400Z,69.80
2018-06-08T18:00:19.856Z,69.90
2018-06-08T18:05:59.657Z,73.10
2018-06-08T18:08:44.112Z,74.60
2018-06-08T18:14:28.452Z,73.30
2018-06-08T18:20:09.163Z,73.90
2018-06-08T18:28:50.658Z,73.20
2018-06-08T18:31:34.190Z,74.50
2018-06-08T18:34:21.832Z,73.90
2018-06-08T18:37:03.308Z,73.50
2018-06-08T18:39:53.985Z,72.90
2018-06-08T18:45:23.814Z,71.90
2018-06-08T18:48:05.618Z,72.00
2018-06-08T18:50:53.575Z,70.80
2018-06-08T18:53:42.146Z,70.20
2018-06-08T18:56:24.944Z,70.40
2018-06-08T18:59:21.869Z,71.00
2018-06-08T19:02:14.756Z,70.70
2018-06-08T19:04:58.101Z,72.80
2018-06-08T19:07:47.566Z,67.90
2018-06-08T19:13:27.423Z,67.10
2018-06-08T19:16:18.417Z,69.00
2018-06-08T19:19:08.364Z,69.60
2018-06-08T19:24:45.609Z,70.30
2018-06-08T19:27:37.329Z,71.80
2018-06-08T19:30:19.561Z,73.40
2018-06-08T19:33:08.266Z,74.90
2018-06-08T19:35:58.968Z,76.20
2018-06-08T19:38:43.761Z,74.70
2018-06-08T19:41:29.692Z,72.30
2018-06-08T19:44:12.063Z,73.00
2018-06-08T19:46:57.932Z,71.60
2018-06-08T19:49:51.471Z,68.40
2018-06-08T19:52:32.886Z,71.20
2018-06-08T19:55:15.434Z,70.30
2018-06-08T19:57:56.311Z,69.10
2018-06-08T20:00:44.418Z,70.00
2018-06-08T20:03:24.262Z,69.90
2018-06-08T20:06:00.799Z,70.70
2018-06-08T20:08:42.228Z,70.80
2018-06-08T20:11:27.816Z,70.90
2018-06-08T20:14:13.604Z,72.00
2018-06-08T20:16:54.305Z,69.80
2018-06-08T20:19:38.517Z,71.20
2018-06-08T20:25:13.645Z,71.00
2018-06-08T20:27:55.146Z,70.90
2018-06-08T20:30:37.600Z,69.80
2018-06-08T20:33:30.333Z,69.80
2018-06-08T20:36:08.442Z,70.60
2018-06-08T20:41:40.748Z,70.10
2018-06-08T20:47:14.680Z,70.10
2018-06-08T20:50:01.931Z,71.90
2018-06-08T20:52:42.078Z,70.00
2018-06-08T20:55:25.545Z,69.50
2018-06-08T20:58:08.248Z,69.30
2018-06-08T21:00:49.244Z,70.20
2018-06-08T21:03:33.363Z,68.70
2018-06-08T21:14:42.562Z,72.80
2018-06-08T21:20:09.157Z,71.60
2018-06-08T21:22:58.851Z,71.00
2018-06-08T21:25:40.339Z,71.80
2018-06-08T21:28:25.697Z,71.60
2018-06-08T21:31:07.276Z,70.80
2018-06-08T21:33:52.883Z,71.00
2018-06-08T21:36:36.307Z,71.60
2018-06-08T21:39:23.881Z,73.00
2018-06-08T21:42:09.181Z,71.70
2018-06-08T21:44:58.882Z,72.30
2018-06-08T21:47:44.967Z,74.40
2018-06-08T21:50:23.696Z,79.70
2018-06-08T21:53:12.075Z,82.00
2018-06-08T21:55:58.114Z,83.40
2018-06-08T21:58:41.707Z,81.70
2018-06-08T22:01:28.591Z,82.30
2018-06-08T22:04:10.544Z,80.70
2018-06-08T22:06:52.935Z,81.00
2018-06-08T22:09:37.672Z,80.10
2018-06-08T22:12:21.585Z,79.30
2018-06-08T22:14:59.617Z,77.80
2018-06-08T22:17:45.528Z,77.70
2018-06-08T22:20:24.713Z,76.30
2018-06-08T22:23:12.088Z,76.10
2018-06-08T22:25:55.141Z,75.20
2018-06-08T22:28:39.301Z,74.40
2018-06-08T22:31:23.078Z,74.30
2018-06-08T22:34:02.257Z,75.00
2018-06-08T22:39:39.389Z,74.10
2018-06-08T22:42:23.902Z,73.40
2018-06-08T22:45:04.315Z,73.90
2018-06-08T22:47:52.100Z,74.00
2018-06-08T22:50:33.018Z,74.60
2018-06-08T22:53:16.870Z,74.00
2018-06-08T22:55:56.674Z,74.40
2018-06-08T22:58:41.132Z,74.30
2018-06-08T23:01:20.001Z,74.20
2018-06-08T23:04:07.354Z,73.40
2018-06-08T23:09:42.537Z,71.70
2018-06-08T23:12:26.229Z,71.80
2018-06-08T23:20:50.961Z,73.80
2018-06-08T23:23:44.570Z,73.70
2018-06-08T23:29:13.262Z,72.50
2018-06-08T23:32:06.611Z,73.40
2018-06-08T23:34:55.591Z,72.10
2018-06-08T23:40:32.212Z,72.20
2018-06-08T23:43:21.617Z,72.60
2018-06-08T23:46:02.244Z,71.80
2018-06-08T23:48:47.027Z,72.20
2018-06-08T23:51:27.870Z,72.70
2018-06-08T23:54:17.196Z,74.10
2018-06-08T23:57:04.994Z,74.50
2018-06-08T23:59:51.733Z,75.60
